Time;durP1;ratioP1;P1;durP2;ratioP2;P2;SDS_P1;SDS_P2;PMS_P1;PMS_P2;Temp;Humidity;BMP_temperature;BMP_pressure;BME280_temperature;BME280_humidity;BME280_pressure;Samples;Min_cycle;Max_cycle;Signal;HPM_P1;HPM_P2
2022/06/16 00:00:51;;;;;;;6.15;4.63;;;12.10;99.90;;;;;;4925809;29;20043;-72
2022/06/16 00:03:17;;;;;;;7.40;5.15;;;12.00;99.90;;;;;;4925685;29;20023;-72
2022/06/16 00:05:44;;;;;;;8.32;5.20;;;12.00;99.90;;;;;;4921401;29;20036;-72
2022/06/16 00:08:14;;;;;;;6.22;5.47;;;11.90;99.90;;;;;;4911854;29;20028;-72
2022/06/16 00:11:16;;;;;;;7.75;5.00;;;11.90;99.90;;;;;;4922109;29;20055;-72
2022/06/16 00:13:37;;;;;;;8.18;5.03;;;11.80;99.90;;;;;;4921704;29;20130;-72
2022/06/16 00:16:03;;;;;;;9.05;5.40;;;11.80;99.90;;;;;;4922558;29;20035;-72
2022/06/16 00:18:30;;;;;;;7.35;5.55;;;11.80;99.90;;;;;;4922230;29;20499;-72
2022/06/16 00:20:55;;;;;;;8.25;6.40;;;11.70;99.90;;;;;;4925260;29;20027;-72
2022/06/16 00:23:21;;;;;;;8.88;5.97;;;11.60;99.90;;;;;;4923853;29;20106;-72
2022/06/16 00:25:47;;;;;;;7.28;6.15;;;11.60;99.90;;;;;;4909732;29;20036;-72
2022/06/16 00:28:13;;;;;;;9.43;6.18;;;11.50;99.90;;;;;;4922480;29;20042;-72
2022/06/16 00:30:39;;;;;;;7.75;6.35;;;11.50;99.90;;;;;;4916210;29;20048;-72
2022/06/16 00:33:05;;;;;;;9.93;6.43;;;11.40;99.90;;;;;;4924160;29;20138;-72
2022/06/16 00:35:31;;;;;;;9.63;6.25;;;11.40;99.90;;;;;;4926418;29;20038;-72
2022/06/16 00:37:57;;;;;;;7.60;6.28;;;11.40;99.90;;;;;;4922813;29;20035;-72
2022/06/16 00:40:22;;;;;;;11.80;6.57;;;11.30;99.90;;;;;;4924479;29;20062;-72
2022/06/16 00:42:48;;;;;;;6.30;5.70;;;11.30;99.90;;;;;;4920223;29;20515;-72
2022/06/16 00:45:45;;;;;;;9.80;6.18;;;11.30;99.90;;;;;;4924817;29;20112;-72
2022/06/16 00:48:29;;;;;;;13.18;7.07;;;11.30;99.90;;;;;;4924988;29;20050;-72
2022/06/16 00:51:21;;;;;;;9.02;5.95;;;11.20;99.90;;;;;;4925575;29;20098;-72
2022/06/16 00:53:46;;;;;;;;;;;11.20;99.90;;;;;;4912322;29;20094;-72
2022/06/16 00:56:17;;;;;;;9.95;5.82;;;11.20;99.90;;;;;;4909811;29;19914;-72
2022/06/16 00:58:46;;;;;;;12.73;6.73;;;11.10;99.90;;;;;;4917277;29;20506;-72
2022/06/16 01:01:13;;;;;;;9.68;6.50;;;11.10;99.90;;;;;;4920744;29;20051;-72
2022/06/16 01:06:29;;;;;;;7.53;6.82;;;11.00;99.90;;;;;;4921761;29;20078;-72
2022/06/16 01:09:02;;;;;;;10.82;6.93;;;11.00;99.90;;;;;;4918842;29;20039;-72
2022/06/16 01:14:37;;;;;;;12.18;6.60;;;11.10;99.90;;;;;;4922405;29;20502;-72
2022/06/16 01:17:28;;;;;;;11.02;6.65;;;11.10;99.90;;;;;;4914298;29;20158;-72
2022/06/16 01:20:14;;;;;;;8.17;6.87;;;11.10;99.90;;;;;;4923325;29;20507;-72
2022/06/16 01:22:57;;;;;;;11.77;7.88;;;11.00;99.90;;;;;;4925614;29;20341;-72
2022/06/16 01:25:33;;;;;;;8.40;6.95;;;11.00;99.90;;;;;;4922771;29;20058;-72
2022/06/16 01:28:21;;;;;;;11.00;8.40;;;11.00;99.90;;;;;;4921234;29;20034;-72
2022/06/16 01:30:55;;;;;;;10.18;6.88;;;11.00;99.90;;;;;;4923311;29;20044;-72
2022/06/16 01:33:53;;;;;;;12.02;8.05;;;10.90;99.90;;;;;;4915472;29;20067;-72
2022/06/16 01:36:41;;;;;;;7.22;6.47;;;10.90;99.90;;;;;;4927803;29;20035;-72
2022/06/16 01:39:26;;;;;;;8.85;7.15;;;10.80;99.90;;;;;;4925941;29;20032;-72
2022/06/16 01:42:05;;;;;;;12.43;7.85;;;10.80;99.90;;;;;;4927804;29;20150;-72
2022/06/16 01:44:40;;;;;;;13.38;8.00;;;10.80;99.90;;;;;;4927266;29;20527;-72
2022/06/16 01:47:14;;;;;;;12.52;8.43;;;10.80;99.90;;;;;;4919268;29;20511;-72
2022/06/16 01:49:48;;;;;;;12.00;9.50;;;10.80;99.90;;;;;;4920439;29;20024;-72
2022/06/16 01:52:20;;;;;;;12.90;8.75;;;10.80;99.90;;;;;;4925580;29;20048;-72
2022/06/16 01:55:01;;;;;;;11.23;8.98;;;10.80;99.90;;;;;;4926488;29;20086;-72
2022/06/16 01:57:33;;;;;;;13.77;9.30;;;10.80;99.90;;;;;;4926423;29;20035;-72
2022/06/16 02:00:18;;;;;;;12.93;9.07;;;10.80;99.90;;;;;;4925169;29;20095;-72
2022/06/16 02:02:45;;;;;;;13.25;9.18;;;10.80;99.90;;;;;;4925356;29;20071;-72
2022/06/16 02:05:22;;;;;;;12.85;8.18;;;10.80;99.90;;;;;;4915845;29;20038;-72
2022/06/16 02:07:56;;;;;;;12.95;8.10;;;10.80;99.90;;;;;;4922364;29;20031;-72
2022/06/16 02:10:29;;;;;;;11.60;9.25;;;10.70;99.90;;;;;;4918933;29;20048;-72
2022/06/16 02:12:58;;;;;;;11.30;8.57;;;10.80;99.90;;;;;;4914253;29;20118;-72
2022/06/16 02:15:36;;;;;;;10.68;8.05;;;10.80;99.90;;;;;;4925541;29;20070;-72
2022/06/16 02:18:05;;;;;;;10.20;7.32;;;10.80;99.90;;;;;;4922298;29;20036;-72
2022/06/16 02:20:52;;;;;;;7.78;6.97;;;10.70;99.90;;;;;;4917795;29;20043;-72
2022/06/16 02:23:20;;;;;;;8.30;7.32;;;10.60;99.90;;;;;;4925120;29;20099;-72
2022/06/16 02:25:48;;;;;;;9.00;7.35;;;10.60;99.90;;;;;;4923619;29;20027;-72
2022/06/16 02:28:15;;;;;;;8.50;7.22;;;10.50;99.90;;;;;;4923302;29;20086;-72
2022/06/16 02:31:13;;;;;;;12.00;7.20;;;10.40;99.90;;;;;;4923589;29;20058;-72
2022/06/16 02:33:52;;;;;;;8.95;7.80;;;10.30;99.90;;;;;;4926847;28;20111;-72
2022/06/16 02:36:24;;;;;;;10.20;7.47;;;10.30;99.90;;;;;;4912858;29;20070;-72
2022/06/16 02:38:52;;;;;;;;;;;10.30;99.90;;;;;;4914001;29;20257;-72
2022/06/16 02:41:55;;;;;;;9.40;6.85;;;10.30;99.90;;;;;;4918764;29;19966;-73
2022/06/16 02:44:46;;;;;;;10.57;7.07;;;10.30;99.90;;;;;;4921257;29;20435;-73
2022/06/16 02:47:44;;;;;;;9.20;8.30;;;10.20;99.90;;;;;;4915139;29;20032;-72
2022/06/16 02:50:31;;;;;;;10.15;7.55;;;10.20;99.90;;;;;;4919435;29;20775;-73
2022/06/16 02:53:25;;;;;;;9.80;8.18;;;10.10;99.90;;;;;;4923099;29;20115;-72
2022/06/16 02:55:57;;;;;;;10.68;7.65;;;10.10;99.90;;;;;;4921790;29;20217;-73
2022/06/16 02:58:24;;;;;;;9.98;7.28;;;10.10;99.90;;;;;;4916670;29;20364;-72
2022/06/16 03:00:54;;;;;;;11.13;8.75;;;10.00;99.90;;;;;;4921370;29;20039;-72
2022/06/16 03:03:29;;;;;;;12.82;8.30;;;10.00;99.90;;;;;;4919474;29;20036;-73
2022/06/16 03:05:58;;;;;;;9.43;7.65;;;9.90;99.90;;;;;;4916600;29;20053;-72
2022/06/16 03:08:26;;;;;;;11.00;8.18;;;9.90;99.90;;;;;;4924157;29;20561;-72
2022/06/16 03:10:53;;;;;;;8.85;7.72;;;9.90;99.90;;;;;;4918755;29;20104;-72
2022/06/16 03:13:21;;;;;;;10.00;7.65;;;9.90;99.90;;;;;;4925443;29;20071;-73
2022/06/16 03:15:52;;;;;;;10.45;7.95;;;9.80;99.90;;;;;;4921925;29;20301;-73
2022/06/16 03:18:20;;;;;;;9.70;7.40;;;9.90;99.90;;;;;;4923295;29;20519;-72
2022/06/16 03:20:46;;;;;;;12.95;7.55;;;9.90;99.90;;;;;;4920194;29;20051;-72
2022/06/16 03:23:12;;;;;;;10.80;8.52;;;9.90;99.90;;;;;;4942858;29;20114;-72
2022/06/16 03:25:39;;;;;;;12.45;7.55;;;9.90;99.90;;;;;;4929529;29;20044;-72
2022/06/16 03:28:05;;;;;;;13.63;8.00;;;9.90;99.90;;;;;;4924141;29;20094;-72
2022/06/16 03:30:31;;;;;;;11.18;8.13;;;9.80;99.90;;;;;;4922261;29;20040;-72
2022/06/16 03:32:57;;;;;;;11.63;7.90;;;9.90;99.90;;;;;;4907114;29;20035;-72
2022/06/16 03:35:22;;;;;;;8.27;7.00;;;9.80;99.90;;;;;;4920815;29;20056;-72
2022/06/16 03:37:48;;;;;;;9.43;7.43;;;9.80;99.90;;;;;;4929309;29;20117;-72
2022/06/16 03:40:14;;;;;;;9.13;7.80;;;9.80;99.90;;;;;;4922546;29;20087;-72
2022/06/16 03:42:40;;;;;;;14.52;8.25;;;9.70;99.90;;;;;;4924070;29;20476;-72
2022/06/16 03:45:07;;;;;;;11.82;8.07;;;9.70;99.90;;;;;;4922623;29;20051;-73
2022/06/16 03:47:33;;;;;;;9.25;7.90;;;9.70;99.90;;;;;;4924430;29;20091;-73
2022/06/16 03:49:59;;;;;;;9.98;8.30;;;9.70;99.90;;;;;;4919395;29;20039;-73
2022/06/16 03:52:25;;;;;;;12.52;8.55;;;9.70;99.90;;;;;;4923311;29;20488;-73
2022/06/16 03:54:51;;;;;;;14.10;9.00;;;9.70;99.90;;;;;;4923029;29;20098;-73
2022/06/16 03:57:18;;;;;;;17.30;9.45;;;9.70;99.90;;;;;;4922535;29;20563;-73
2022/06/16 03:59:43;;;;;;;10.25;8.70;;;9.80;99.90;;;;;;4922236;29;20081;-73
2022/06/16 04:02:09;;;;;;;16.17;9.93;;;9.80;99.90;;;;;;4924308;29;20037;-72
2022/06/16 04:04:35;;;;;;;14.30;9.52;;;9.90;99.90;;;;;;4922058;29;20038;-73
2022/06/16 04:07:01;;;;;;;11.40;7.72;;;9.90;99.90;;;;;;4922500;29;20483;-73
2022/06/16 04:09:26;;;;;;;13.68;8.70;;;9.90;99.90;;;;;;4922164;29;20107;-73
2022/06/16 04:11:52;;;;;;;8.90;7.75;;;9.80;99.90;;;;;;4922607;29;20574;-73
2022/06/16 04:14:18;;;;;;;15.55;8.45;;;9.80;99.90;;;;;;4921594;29;20036;-73
2022/06/16 04:16:48;;;;;;;10.55;8.88;;;9.90;99.90;;;;;;4921608;29;20054;-73
2022/06/16 04:19:18;;;;;;;12.00;8.52;;;9.90;99.90;;;;;;4918354;29;20087;-72
2022/06/16 04:21:45;;;;;;;11.53;8.37;;;9.90;99.90;;;;;;4921778;29;20110;-72
2022/06/16 04:24:12;;;;;;;9.23;7.68;;;10.00;99.90;;;;;;4908490;29;20773;-72
2022/06/16 04:26:38;;;;;;;14.48;8.55;;;10.00;99.90;;;;;;4919834;29;20059;-72
2022/06/16 04:29:05;;;;;;;10.13;7.80;;;10.10;99.90;;;;;;4914406;29;20035;-72
2022/06/16 04:31:32;;;;;;;10.35;8.75;;;10.10;99.90;;;;;;4917225;29;20263;-72
2022/06/16 04:33:58;;;;;;;9.63;7.97;;;10.10;99.90;;;;;;4911782;29;20145;-72
2022/06/16 04:36:24;;;;;;;9.07;7.75;;;10.10;99.90;;;;;;4919398;29;20318;-72
2022/06/16 04:38:49;;;;;;;9.30;7.05;;;10.20;99.90;;;;;;4920952;29;20474;-72
2022/06/16 04:41:16;;;;;;;10.18;6.80;;;10.30;99.90;;;;;;4921248;29;20047;-72
2022/06/16 04:43:42;;;;;;;12.48;7.50;;;10.30;99.90;;;;;;4922267;29;20043;-72
2022/06/16 04:46:10;;;;;;;7.40;6.30;;;10.40;99.90;;;;;;4921528;29;20035;-72
2022/06/16 04:48:38;;;;;;;7.28;6.53;;;10.50;99.90;;;;;;4922156;29;20028;-72
2022/06/16 04:51:04;;;;;;;8.38;6.55;;;10.50;99.90;;;;;;4909144;29;20052;-72
2022/06/16 04:53:31;;;;;;;7.22;6.53;;;10.60;99.90;;;;;;4918953;29;20043;-72
2022/06/16 04:55:58;;;;;;;14.10;7.10;;;10.70;99.90;;;;;;4919213;29;20044;-73
2022/06/16 04:58:25;;;;;;;6.80;5.82;;;10.80;99.90;;;;;;4911147;29;20115;-72
2022/06/16 05:00:52;;;;;;;7.35;6.20;;;10.90;99.90;;;;;;4916422;29;20139;-72
2022/06/16 05:03:19;;;;;;;8.15;6.72;;;11.00;99.90;;;;;;4915143;29;20046;-73
2022/06/16 05:05:47;;;;;;;8.57;6.72;;;11.00;99.90;;;;;;4919740;29;20068;-73
2022/06/16 05:08:14;;;;;;;8.18;7.38;;;11.10;99.90;;;;;;4921111;29;20035;-72
2022/06/16 05:10:41;;;;;;;11.07;7.22;;;11.10;99.90;;;;;;4916128;29;20043;-72
2022/06/16 05:13:07;;;;;;;9.07;8.18;;;11.20;99.90;;;;;;4919630;29;20440;-73
2022/06/16 05:15:33;;;;;;;9.23;7.90;;;11.20;99.90;;;;;;4923565;29;20099;-72
2022/06/16 05:17:59;;;;;;;10.95;8.13;;;11.30;99.90;;;;;;4925299;29;20036;-72
2022/06/16 05:20:25;;;;;;;8.80;7.22;;;11.40;99.90;;;;;;4926359;29;20028;-72
2022/06/16 05:22:50;;;;;;;10.13;7.28;;;11.40;99.90;;;;;;4926100;29;20755;-72
2022/06/16 05:25:16;;;;;;;8.75;7.00;;;11.50;99.90;;;;;;4925762;29;20691;-73
2022/06/16 05:27:42;;;;;;;10.32;8.35;;;11.60;99.90;;;;;;4918752;29;20040;-73
2022/06/16 05:30:08;;;;;;;10.93;7.55;;;11.60;99.90;;;;;;4911132;29;20090;-72
2022/06/16 05:32:33;;;;;;;11.50;7.82;;;11.70;99.90;;;;;;4911053;29;20039;-72
2022/06/16 05:34:59;;;;;;;11.07;8.50;;;11.80;99.90;;;;;;4926480;29;20036;-72
2022/06/16 05:37:25;;;;;;;11.65;8.60;;;11.80;99.90;;;;;;4913544;29;20692;-72
2022/06/16 05:39:50;;;;;;;13.02;8.88;;;11.80;99.90;;;;;;4925157;29;20032;-72
2022/06/16 05:42:17;;;;;;;14.80;10.85;;;11.90;99.90;;;;;;4923991;29;20042;-72
2022/06/16 05:44:43;;;;;;;17.10;10.45;;;11.90;99.90;;;;;;4924980;29;20063;-72
2022/06/16 05:47:09;;;;;;;15.68;10.88;;;11.90;99.90;;;;;;4921748;29;20036;-72
2022/06/16 05:49:38;;;;;;;14.65;8.95;;;11.90;99.90;;;;;;4916339;29;20091;-73
2022/06/16 05:52:17;;;;;;;9.23;7.75;;;12.00;99.90;;;;;;4925650;29;20071;-72
2022/06/16 05:54:44;;;;;;;9.93;8.18;;;12.10;99.90;;;;;;4924480;29;20055;-72
2022/06/16 05:57:10;;;;;;;10.75;8.40;;;12.10;99.90;;;;;;4925809;29;20040;-72
2022/06/16 05:59:37;;;;;;;10.38;8.40;;;12.10;99.90;;;;;;4923598;29;20042;-72
2022/06/16 06:02:05;;;;;;;11.77;7.82;;;12.20;99.90;;;;;;4921916;29;20032;-72
2022/06/16 06:04:32;;;;;;;10.27;6.90;;;12.30;99.90;;;;;;4917347;29;20028;-72
2022/06/16 06:06:58;;;;;;;11.00;7.32;;;12.30;99.90;;;;;;4906959;29;20028;-72
2022/06/16 06:17:44;;;;;;;12.65;9.40;;;12.90;99.90;;;;;;4919564;29;20047;-71
2022/06/16 06:20:10;;;;;;;14.13;9.73;;;13.10;99.90;;;;;;4917280;29;20039;-71
2022/06/16 06:22:36;;;;;;;12.20;9.88;;;13.20;99.90;;;;;;4918836;29;20031;-71
2022/06/16 06:25:02;;;;;;;15.50;9.10;;;13.40;99.90;;;;;;4914003;29;20567;-71
2022/06/16 06:27:44;;;;;;;17.02;10.75;;;13.50;99.90;;;;;;4921432;29;20020;-71
2022/06/16 06:30:23;;;;;;;10.85;9.07;;;13.60;99.90;;;;;;4918169;29;20067;-71
2022/06/16 06:32:50;;;;;;;13.75;10.63;;;13.60;99.90;;;;;;4922409;29;20035;-70
2022/06/16 06:35:16;;;;;;;24.38;19.73;;;13.70;99.90;;;;;;4921025;29;20114;-71
2022/06/16 06:37:43;;;;;;;209.65;132.40;;;13.80;99.90;;;;;;4920367;29;20028;-70
2022/06/16 06:40:17;;;;;;;51.10;37.13;;;13.90;99.90;;;;;;4920392;29;20030;-71
2022/06/16 06:42:43;;;;;;;22.42;17.13;;;14.00;99.90;;;;;;4920319;29;20040;-70
2022/06/16 06:45:09;;;;;;;21.88;15.23;;;14.10;99.90;;;;;;4571884;28;10000348;-71
2022/06/16 06:47:35;;;;;;;20.20;14.35;;;14.40;99.90;;;;;;4919514;29;20044;-71
2022/06/16 06:50:00;;;;;;;18.38;13.60;;;14.60;99.90;;;;;;4909017;29;20032;-71
2022/06/16 06:52:27;;;;;;;21.00;14.35;;;14.70;99.90;;;;;;4911995;29;20048;-71
2022/06/16 06:54:53;;;;;;;16.15;13.65;;;14.80;99.90;;;;;;4914452;29;20032;-71
2022/06/16 06:57:22;;;;;;;17.85;14.40;;;14.90;99.90;;;;;;4912694;29;20042;-71
2022/06/16 06:59:47;;;;;;;20.17;13.95;;;15.00;99.90;;;;;;4918081;29;20035;-71
2022/06/16 07:02:15;;;;;;;20.13;12.65;;;15.20;99.90;;;;;;4915059;29;20428;-71
2022/06/16 07:04:41;;;;;;;19.00;12.50;;;15.50;99.90;;;;;;4910975;29;20637;-71
2022/06/16 07:07:10;;;;;;;13.70;12.02;;;15.60;99.90;;;;;;4913470;29;20039;-71
2022/06/16 07:09:36;;;;;;;13.75;11.75;;;15.80;99.90;;;;;;4914155;29;20040;-72
2022/06/16 07:12:02;;;;;;;16.38;12.43;;;15.90;99.90;;;;;;4913737;29;20400;-72
2022/06/16 07:14:30;;;;;;;15.60;11.60;;;16.00;99.90;;;;;;4907007;29;20020;-72
2022/06/16 07:16:56;;;;;;;16.83;11.73;;;16.20;99.90;;;;;;4908129;29;20052;-72
2022/06/16 07:19:22;;;;;;;15.57;10.50;;;16.50;99.90;;;;;;4908002;29;20031;-71
2022/06/16 07:21:47;;;;;;;12.55;10.38;;;16.80;99.90;;;;;;4909290;29;20042;-72
2022/06/16 07:24:13;;;;;;;10.93;9.18;;;17.10;99.90;;;;;;4904347;29;20079;-72
2022/06/16 07:26:39;;;;;;;13.38;9.38;;;17.30;99.90;;;;;;4905645;29;20060;-72
2022/06/16 07:29:04;;;;;;;12.30;9.32;;;17.60;99.90;;;;;;4906507;29;20050;-71
2022/06/16 07:31:30;;;;;;;9.30;8.20;;;18.40;99.90;;;;;;4906787;29;20052;-71
2022/06/16 07:33:57;;;;;;;14.45;6.57;;;21.20;99.90;;;;;;4905389;29;20028;-71
2022/06/16 07:36:23;;;;;;;9.80;5.57;;;25.40;97.30;;;;;;4908108;29;20522;-71
2022/06/16 07:38:49;;;;;;;9.70;7.15;;;28.50;78.40;;;;;;4912669;29;20039;-71
2022/06/16 07:41:31;;;;;;;12.85;8.43;;;31.10;55.50;;;;;;4920137;29;20032;-71
2022/06/16 07:43:57;;;;;;;12.07;7.05;;;32.80;47.40;;;;;;4913234;29;20028;-71
2022/06/16 07:46:23;;;;;;;12.98;6.40;;;34.50;42.30;;;;;;4905622;29;20102;-71
2022/06/16 07:48:51;;;;;;;12.38;6.43;;;35.70;40.10;;;;;;4899278;29;20118;-72
2022/06/16 07:51:19;;;;;;;10.80;6.35;;;36.50;37.60;;;;;;4904539;29;20034;-72
2022/06/16 07:53:46;;;;;;;5.85;4.03;;;36.30;35.50;;;;;;4909769;29;20027;-72
2022/06/16 07:56:12;;;;;;;8.65;6.70;;;37.50;37.30;;;;;;4899743;29;20861;-72
2022/06/16 07:58:39;;;;;;;7.85;6.30;;;36.30;32.40;;;;;;4901238;29;20583;-72
2022/06/16 08:01:07;;;;;;;6.25;5.20;;;37.50;34.50;;;;;;4901308;29;20119;-72
2022/06/16 08:03:36;;;;;;;7.60;5.50;;;39.30;33.60;;;;;;4901764;29;20028;-72
2022/06/16 08:06:06;;;;;;;7.78;4.18;;;39.60;31.60;;;;;;4906080;29;20032;-71
2022/06/16 08:08:32;;;;;;;7.03;4.60;;;39.40;33.40;;;;;;4906012;29;20461;-72
2022/06/16 08:10:57;;;;;;;9.02;4.47;;;39.90;31.10;;;;;;4905143;29;20039;-71
2022/06/16 08:13:24;;;;;;;6.05;4.30;;;38.60;32.60;;;;;;4910278;29;20063;-71
2022/06/16 08:15:51;;;;;;;7.45;4.18;;;39.30;31.40;;;;;;4901991;29;20054;-71
2022/06/16 08:18:19;;;;;;;9.38;3.47;;;39.20;33.80;;;;;;4903872;29;20471;-71
2022/06/16 08:20:45;;;;;;;6.10;3.40;;;39.40;32.80;;;;;;4901574;29;20050;-71
2022/06/16 08:23:11;;;;;;;5.68;5.03;;;39.10;31.00;;;;;;4902853;29;20031;-72
2022/06/16 08:25:39;;;;;;;7.93;3.63;;;39.40;29.60;;;;;;4893380;29;20035;-71
2022/06/16 08:28:06;;;;;;;6.43;3.45;;;40.80;30.00;;;;;;4895600;29;20042;-71
2022/06/16 08:30:33;;;;;;;5.78;3.90;;;40.30;28.50;;;;;;4899743;29;20164;-71
2022/06/16 08:32:59;;;;;;;5.28;2.83;;;42.30;30.90;;;;;;4904268;29;20123;-72
2022/06/16 08:35:26;;;;;;;5.07;2.90;;;42.30;29.90;;;;;;4899542;29;20094;-71
2022/06/16 08:37:51;;;;;;;5.63;3.83;;;42.50;27.60;;;;;;4904694;29;20039;-72
2022/06/16 08:40:18;;;;;;;3.65;3.00;;;39.90;26.80;;;;;;4905572;29;20032;-71
2022/06/16 08:43:00;;;;;;;5.22;2.85;;;41.10;28.90;;;;;;4908228;29;21340;-72
2022/06/16 08:45:31;;;;;;;7.53;2.88;;;41.30;28.60;;;;;;4917760;29;20032;-71
2022/06/16 08:48:25;;;;;;;4.60;2.38;;;42.10;28.90;;;;;;4911963;29;20083;-72
2022/06/16 08:51:20;;;;;;;4.15;2.35;;;41.80;28.10;;;;;;4910969;29;20613;-72
2022/06/16 08:54:17;;;;;;;6.65;2.40;;;41.40;30.00;;;;;;4916886;29;20067;-71
2022/06/16 08:56:46;;;;;;;4.15;2.30;;;41.50;28.70;;;;;;4906101;29;20513;-71
2022/06/16 08:59:49;;;;;;;4.68;2.10;;;41.10;27.90;;;;;;4907349;29;20059;-72
2022/06/16 09:02:21;;;;;;;3.95;2.25;;;40.20;28.50;;;;;;4908204;29;20567;-72
2022/06/16 09:04:54;;;;;;;6.82;2.30;;;41.10;27.10;;;;;;4914342;29;20051;-73
2022/06/16 09:07:41;;;;;;;3.58;1.95;;;41.50;27.70;;;;;;4914318;29;20154;-72
2022/06/16 09:10:16;;;;;;;1.83;1.60;;;40.80;29.50;;;;;;4918398;29;20023;-72
2022/06/16 09:12:51;;;;;;;3.15;2.28;;;40.30;28.90;;;;;;4232537;29;10001471;-71
2022/06/16 09:15:40;;;;;;;3.83;1.52;;;40.80;29.00;;;;;;4911416;29;20027;-71
2022/06/16 09:18:13;;;;;;;4.60;1.60;;;40.60;30.00;;;;;;4911313;29;20087;-71
2022/06/16 09:20:54;;;;;;;4.90;1.80;;;40.80;25.80;;;;;;4910568;29;20090;-71
2022/06/16 09:23:29;;;;;;;;;;;39.80;27.10;;;;;;4914650;29;20032;-71
2022/06/16 09:25:58;;;;;;;5.80;2.08;;;40.10;29.60;;;;;;4908337;29;19918;-71
2022/06/16 09:28:45;;;;;;;5.22;2.28;;;39.40;27.80;;;;;;4907912;29;20035;-71
2022/06/16 09:31:18;;;;;;;5.78;2.08;;;39.00;27.80;;;;;;4912210;29;20126;-71
2022/06/16 09:33:50;;;;;;;6.82;2.28;;;38.90;30.40;;;;;;4906612;29;20122;-71
2022/06/16 09:36:21;;;;;;;4.78;1.92;;;38.60;28.40;;;;;;4915635;29;20034;-72
2022/06/16 09:38:54;;;;;;;3.70;2.25;;;38.70;32.90;;;;;;4919854;29;20491;-71
2022/06/16 09:44:51;;;;;;;6.22;2.50;;;38.50;31.20;;;;;;4919659;29;20082;-72
2022/06/16 09:47:22;;;;;;;5.03;2.17;;;38.10;30.60;;;;;;4921632;29;20506;-71
2022/06/16 09:50:10;;;;;;;10.00;2.80;;;37.70;29.90;;;;;;4919731;29;20090;-71
2022/06/16 09:52:49;;;;;;;5.13;2.70;;;36.90;31.90;;;;;;4920134;29;20047;-73
2022/06/16 09:55:22;;;;;;;5.13;2.50;;;35.40;34.00;;;;;;4917247;29;20521;-72
2022/06/16 09:57:56;;;;;;;4.85;2.75;;;35.60;40.30;;;;;;4920283;29;20028;-72
2022/06/16 10:00:23;;;;;;;5.97;2.65;;;35.70;33.80;;;;;;4919060;29;20522;-72
2022/06/16 10:02:54;;;;;;;4.32;2.00;;;35.80;34.30;;;;;;4920218;29;20071;-72
2022/06/16 10:05:32;;;;;;;5.73;2.33;;;36.10;37.70;;;;;;4912439;29;20563;-72
2022/06/16 10:08:14;;;;;;;3.75;2.05;;;36.10;37.30;;;;;;4906047;29;20274;-72
2022/06/16 10:10:45;;;;;;;4.38;2.47;;;36.80;36.60;;;;;;4911696;29;20048;-72
2022/06/16 10:13:31;;;;;;;5.40;2.25;;;37.60;31.80;;;;;;4925605;29;20162;-72
2022/06/16 10:16:06;;;;;;;4.15;1.83;;;37.50;33.30;;;;;;4915883;29;20036;-73
2022/06/16 10:18:32;;;;;;;5.63;2.00;;;37.20;34.40;;;;;;4920353;29;20035;-72
2022/06/16 10:20:58;;;;;;;6.15;1.85;;;37.10;34.10;;;;;;4916003;29;20028;-73
2022/06/16 10:23:31;;;;;;;5.55;2.20;;;36.90;33.60;;;;;;4922211;29;20050;-73
2022/06/16 10:26:02;;;;;;;4.82;2.20;;;36.60;34.00;;;;;;4915538;29;20043;-72
2022/06/16 10:28:38;;;;;;;3.65;2.15;;;36.30;36.50;;;;;;4923243;29;20081;-72
2022/06/16 10:31:06;;;;;;;3.00;2.10;;;36.00;34.10;;;;;;4924013;29;20062;-72
2022/06/16 10:33:51;;;;;;;6.53;2.05;;;35.90;34.30;;;;;;4925775;29;20087;-72
2022/06/16 10:36:22;;;;;;;5.97;2.50;;;35.90;37.50;;;;;;4923899;29;20087;-72
2022/06/16 10:39:15;;;;;;;7.13;3.28;;;35.80;35.50;;;;;;4922087;29;20059;-72
2022/06/16 10:42:00;;;;;;;4.43;2.40;;;35.50;33.40;;;;;;4894021;29;20082;-72
2022/06/16 10:44:28;;;;;;;3.63;2.35;;;35.40;38.00;;;;;;4920364;29;20035;-72
2022/06/16 10:47:00;;;;;;;6.55;2.28;;;35.00;38.50;;;;;;4920340;29;20034;-72
2022/06/16 10:49:38;;;;;;;6.13;2.72;;;35.10;40.70;;;;;;4923607;29;20027;-72
2022/06/16 10:52:11;;;;;;;6.22;2.78;;;35.10;36.80;;;;;;4922561;29;20466;-72
2022/06/16 10:54:53;;;;;;;9.20;3.00;;;34.60;36.90;;;;;;4920406;29;20027;-73
2022/06/16 10:57:27;;;;;;;4.82;2.55;;;34.40;38.40;;;;;;4924609;29;20036;-73
2022/06/16 11:00:06;;;;;;;7.03;2.97;;;34.30;38.30;;;;;;4928444;29;20058;-73
2022/06/16 11:02:35;;;;;;;6.80;3.20;;;34.50;39.10;;;;;;4922591;29;20067;-73
2022/06/16 11:05:13;;;;;;;7.35;3.10;;;34.20;40.20;;;;;;4923956;29;20431;-73
2022/06/16 11:07:41;;;;;;;4.55;3.35;;;33.90;38.60;;;;;;4918490;29;20046;-73
2022/06/16 11:10:28;;;;;;;4.90;2.85;;;34.00;40.50;;;;;;4923545;29;20052;-72
2022/06/16 11:12:55;;;;;;;7.47;3.97;;;34.10;38.80;;;;;;4912328;29;20079;-73
2022/06/16 11:15:32;;;;;;;7.78;3.60;;;33.70;39.60;;;;;;4923158;29;20031;-72
2022/06/16 11:18:01;;;;;;;7.53;3.60;;;33.20;40.60;;;;;;4919101;29;20899;-72
2022/06/16 11:20:36;;;;;;;4.35;2.60;;;33.30;40.30;;;;;;4923698;29;20555;-72
2022/06/16 11:23:36;;;;;;;8.32;3.58;;;33.40;41.30;;;;;;4922016;29;20059;-72
2022/06/16 11:26:16;;;;;;;6.17;3.13;;;33.30;43.50;;;;;;4910925;29;20047;-72
2022/06/16 11:28:51;;;;;;;5.97;2.78;;;33.50;39.90;;;;;;4918037;29;20518;-72
2022/06/16 11:31:24;;;;;;;5.80;2.80;;;33.70;43.60;;;;;;4915555;29;20044;-72
2022/06/16 11:34:20;;;;;;;5.80;2.92;;;33.30;42.60;;;;;;4920901;29;20499;-72
2022/06/16 11:37:11;;;;;;;5.86;2.68;;;32.90;39.50;;;;;;4240562;28;10020681;-72
2022/06/16 11:39:55;;;;;;;7.37;3.03;;;32.10;47.20;;;;;;4910928;29;20496;-72
2022/06/16 11:42:56;;;;;;;7.07;3.50;;;31.80;48.00;;;;;;4914150;29;20048;-72
2022/06/16 11:45:45;;;;;;;7.23;2.93;;;31.30;44.10;;;;;;4912871;29;20443;-72
2022/06/16 11:48:23;;;;;;;6.47;2.63;;;30.90;45.00;;;;;;4917527;29;20312;-74
2022/06/16 11:51:21;;;;;;;8.10;3.40;;;30.80;54.40;;;;;;4927487;29;20487;-72
2022/06/16 11:53:49;;;;;;;6.80;2.67;;;30.10;43.80;;;;;;4907637;29;20046;-73
2022/06/16 11:56:47;;;;;;;8.02;2.90;;;30.10;51.10;;;;;;4911242;29;20032;-73
2022/06/16 11:59:24;;;;;;;6.03;2.75;;;30.30;50.60;;;;;;4888898;29;20046;-72
2022/06/16 12:02:24;;;;;;;6.68;2.95;;;30.30;51.80;;;;;;4909960;29;20151;-72
2022/06/16 12:05:15;;;;;;;4.55;2.40;;;30.10;46.30;;;;;;4923378;29;20028;-72
2022/06/16 12:07:51;;;;;;;;;;;30.20;49.80;;;;;;4924541;29;20106;-72
2022/06/16 12:10:49;;;;;;;5.78;3.10;;;30.30;52.50;;;;;;4916113;29;19953;-73
2022/06/16 12:13:20;;;;;;;6.00;2.92;;;30.30;50.20;;;;;;4924658;29;20082;-73
2022/06/16 12:15:55;;;;;;;4.35;2.35;;;30.30;46.00;;;;;;4921174;29;20036;-73
2022/06/16 12:18:45;;;;;;;4.97;2.75;;;30.50;55.40;;;;;;4917940;29;20048;-73
2022/06/16 12:21:30;;;;;;;5.68;2.50;;;30.40;47.70;;;;;;4911321;29;20036;-72
2022/06/16 12:24:23;;;;;;;6.55;2.22;;;30.20;48.60;;;;;;4921269;29;20457;-72
2022/06/16 12:27:00;;;;;;;7.22;2.42;;;30.00;44.80;;;;;;4920443;29;20039;-72
2022/06/16 12:29:42;;;;;;;7.72;3.30;;;30.20;54.10;;;;;;4922405;29;20036;-73
2022/06/16 12:32:26;;;;;;;6.07;2.30;;;30.30;45.20;;;;;;4922871;29;20035;-73
2022/06/16 12:35:00;;;;;;;11.77;2.67;;;30.00;45.20;;;;;;4919257;29;20031;-72
2022/06/16 12:37:33;;;;;;;6.15;2.97;;;29.70;57.20;;;;;;4905139;29;20036;-72
2022/06/16 12:40:24;;;;;;;4.63;2.53;;;29.70;45.10;;;;;;4904588;29;20032;-72
2022/06/16 12:42:54;;;;;;;5.70;2.42;;;29.60;50.90;;;;;;4904805;29;20431;-72
2022/06/16 12:45:32;;;;;;;4.30;1.98;;;29.40;42.40;;;;;;4905388;29;20032;-72
2022/06/16 12:48:12;;;;;;;6.28;2.00;;;29.20;43.20;;;;;;4904793;29;20059;-72
2022/06/16 12:50:55;;;;;;;6.20;2.00;;;29.20;45.30;;;;;;4910477;29;20516;-73
2022/06/16 12:53:41;;;;;;;5.07;2.22;;;29.20;48.30;;;;;;4910403;29;20036;-73
2022/06/16 12:56:34;;;;;;;5.95;1.90;;;29.10;44.40;;;;;;4904433;29;20059;-72
2022/06/16 12:59:21;;;;;;;4.70;1.90;;;29.10;43.90;;;;;;4905189;29;20054;-72
2022/06/16 13:01:52;;;;;;;5.00;2.10;;;29.60;47.50;;;;;;4905050;29;20130;-72
2022/06/16 13:04:30;;;;;;;4.32;2.10;;;29.60;45.50;;;;;;4904688;29;20036;-71
2022/06/16 13:06:58;;;;;;;4.88;2.40;;;29.80;44.80;;;;;;4913044;29;20062;-72
2022/06/16 13:09:24;;;;;;;4.60;1.80;;;29.60;47.70;;;;;;4914625;29;20504;-72
2022/06/16 13:12:14;;;;;;;4.80;2.05;;;29.50;40.30;;;;;;4921569;29;20031;-72
2022/06/16 13:14:57;;;;;;;3.60;2.05;;;29.50;48.20;;;;;;4923222;29;20499;-72
2022/06/16 13:17:29;;;;;;;3.08;1.80;;;29.70;43.80;;;;;;4924266;29;20069;-72
2022/06/16 13:20:09;;;;;;;3.78;1.92;;;29.80;47.30;;;;;;4923041;29;20024;-72
2022/06/16 13:22:39;;;;;;;4.70;1.90;;;30.20;46.10;;;;;;4922877;29;20119;-72
2022/06/16 13:25:08;;;;;;;7.70;2.10;;;30.10;48.40;;;;;;4919082;29;20028;-73
2022/06/16 13:27:37;;;;;;;5.13;2.38;;;30.20;49.20;;;;;;4913676;29;20340;-72
2022/06/16 13:30:08;;;;;;;2.80;1.65;;;29.90;42.00;;;;;;4923482;29;20046;-73